sensor_id;sensor_type;location;lat;lon;timestamp;pressure;altitude;pressure_sealevel;temperature;humidity
74169;BME280;62523;53.336;83.690;2022-12-22T00:04:34;99238.94;;;-8.15;85.67
74169;BME280;62523;53.336;83.690;2022-12-22T00:09:53;99261.78;;;-8.23;87.07
74169;BME280;62523;53.336;83.690;2022-12-22T00:15:15;99281.91;;;-8.39;89.41
74169;BME280;62523;53.336;83.690;2022-12-22T00:20:35;99288.63;;;-8.89;100.00
74169;BME280;62523;53.336;83.690;2022-12-22T00:25:56;99308.03;;;-8.97;100.00
74169;BME280;62523;53.336;83.690;2022-12-22T00:31:16;99315.75;;;-9.32;100.00
74169;BME280;62523;53.336;83.690;2022-12-22T00:36:36;99329.75;;;-9.51;100.00
74169;BME280;62523;53.336;83.690;2022-12-22T00:41:56;99344.78;;;-9.63;100.00
74169;BME280;62523;53.336;83.690;2022-12-22T00:47:23;99373.63;;;-9.65;100.00
74169;BME280;62523;53.336;83.690;2022-12-22T00:52:43;99387.97;;;-9.69;100.00
74169;BME280;62523;53.336;83.690;2022-12-22T00:58:06;99403.31;;;-9.66;100.00
74169;BME280;62523;53.336;83.690;2022-12-22T01:03:29;99407.66;;;-9.63;100.00
74169;BME280;62523;53.336;83.690;2022-12-22T01:08:48;99424.94;;;-9.85;100.00
74169;BME280;62523;53.336;83.690;2022-12-22T01:14:10;99438.75;;;-10.08;100.00
74169;BME280;62523;53.336;83.690;2022-12-22T01:19:31;99446.81;;;-10.23;100.00
74169;BME280;62523;53.336;83.690;2022-12-22T01:24:50;99465.38;;;-10.27;100.00
74169;BME280;62523;53.336;83.690;2022-12-22T01:30:10;99468.69;;;-10.32;100.00
74169;BME280;62523;53.336;83.690;2022-12-22T01:35:32;99467.78;;;-10.34;100.00
74169;BME280;62523;53.336;83.690;2022-12-22T01:40:54;99531.59;;;-10.29;100.00
74169;BME280;62523;53.336;83.690;2022-12-22T01:46:18;99535.78;;;-10.31;100.00
74169;BME280;62523;53.336;83.690;2022-12-22T01:51:38;99525.19;;;-10.43;100.00
74169;BME280;62523;53.336;83.690;2022-12-22T01:56:58;99557.38;;;-10.47;100.00
74169;BME280;62523;53.336;83.690;2022-12-22T02:02:19;99583.50;;;-10.53;99.76
74169;BME280;62523;53.336;83.690;2022-12-22T02:07:50;99576.75;;;-10.51;99.53
74169;BME280;62523;53.336;83.690;2022-12-22T02:24:53;99627.69;;;-10.76;99.45
74169;BME280;62523;53.336;83.690;2022-12-22T02:30:16;99634.16;;;-10.86;100.00
74169;BME280;62523;53.336;83.690;2022-12-22T02:35:46;99661.41;;;-10.83;100.00
74169;BME280;62523;53.336;83.690;2022-12-22T02:46:46;99696.34;;;-10.78;100.00
74169;BME280;62523;53.336;83.690;2022-12-22T02:52:26;99717.63;;;-10.76;100.00
74169;BME280;62523;53.336;83.690;2022-12-22T02:57:50;99736.44;;;-10.72;100.00
74169;BME280;62523;53.336;83.690;2022-12-22T03:03:10;99749.41;;;-10.66;99.78
74169;BME280;62523;53.336;83.690;2022-12-22T03:08:30;99728.34;;;-10.86;98.13
74169;BME280;62523;53.336;83.690;2022-12-22T03:13:49;99770.31;;;-10.75;95.72
74169;BME280;62523;53.336;83.690;2022-12-22T03:19:09;99773.69;;;-10.74;95.22
74169;BME280;62523;53.336;83.690;2022-12-22T03:24:29;99837.81;;;-10.62;95.07
74169;BME280;62523;53.336;83.690;2022-12-22T03:29:49;99850.75;;;-10.78;96.24
74169;BME280;62523;53.336;83.690;2022-12-22T03:34:50;99863.03;;;-10.90;97.64
74169;BME280;62523;53.336;83.690;2022-12-22T03:39:51;99880.91;;;-10.89;98.42
74169;BME280;62523;53.336;83.690;2022-12-22T03:44:52;99881.44;;;-11.19;99.38
74169;BME280;62523;53.336;83.690;2022-12-22T03:50:11;99931.38;;;-11.00;98.64
74169;BME280;62523;53.336;83.690;2022-12-22T03:55:13;99975.97;;;-11.09;97.61
74169;BME280;62523;53.336;83.690;2022-12-22T04:00:14;99943.81;;;-11.28;96.97
74169;BME280;62523;53.336;83.690;2022-12-22T04:05:16;99981.41;;;-11.21;96.86
74169;BME280;62523;53.336;83.690;2022-12-22T04:10:17;100002.38;;;-11.27;96.67
74169;BME280;62523;53.336;83.690;2022-12-22T04:15:37;100029.66;;;-11.63;95.41
74169;BME280;62523;53.336;83.690;2022-12-22T04:20:38;100048.97;;;-11.67;94.43
74169;BME280;62523;53.336;83.690;2022-12-22T04:25:39;100085.69;;;-11.60;94.27
74169;BME280;62523;53.336;83.690;2022-12-22T04:30:40;100103.09;;;-11.87;94.90
74169;BME280;62523;53.336;83.690;2022-12-22T04:35:42;100112.03;;;-11.97;95.73
74169;BME280;62523;53.336;83.690;2022-12-22T04:40:43;100104.19;;;-12.20;95.99
74169;BME280;62523;53.336;83.690;2022-12-22T04:45:44;100145.94;;;-12.14;94.91
74169;BME280;62523;53.336;83.690;2022-12-22T04:50:49;100160.16;;;-12.18;92.45
74169;BME280;62523;53.336;83.690;2022-12-22T04:56:02;100171.81;;;-12.22;91.84
74169;BME280;62523;53.336;83.690;2022-12-22T05:01:12;100199.94;;;-12.01;91.19
74169;BME280;62523;53.336;83.690;2022-12-22T05:06:14;100213.44;;;-12.02;89.47
74169;BME280;62523;53.336;83.690;2022-12-22T05:11:16;100222.56;;;-12.23;89.12
74169;BME280;62523;53.336;83.690;2022-12-22T05:16:17;100239.31;;;-12.27;88.54
74169;BME280;62523;53.336;83.690;2022-12-22T05:21:20;100269.00;;;-12.26;87.48
74169;BME280;62523;53.336;83.690;2022-12-22T05:26:22;100283.38;;;-12.43;86.66
74169;BME280;62523;53.336;83.690;2022-12-22T05:31:24;100304.78;;;-12.38;86.73
74169;BME280;62523;53.336;83.690;2022-12-22T05:36:26;100324.56;;;-12.32;86.82
74169;BME280;62523;53.336;83.690;2022-12-22T05:41:27;100338.50;;;-12.24;87.51
74169;BME280;62523;53.336;83.690;2022-12-22T05:46:28;100353.09;;;-12.20;87.44
74169;BME280;62523;53.336;83.690;2022-12-22T05:51:29;100371.38;;;-12.10;86.95
74169;BME280;62523;53.336;83.690;2022-12-22T05:56:30;100380.72;;;-12.09;86.79
74169;BME280;62523;53.336;83.690;2022-12-22T06:01:31;100405.03;;;-12.14;86.23
74169;BME280;62523;53.336;83.690;2022-12-22T06:06:33;100427.31;;;-12.09;84.75
74169;BME280;62523;53.336;83.690;2022-12-22T06:11:34;100416.69;;;-12.02;84.26
74169;BME280;62523;53.336;83.690;2022-12-22T06:16:35;100435.50;;;-12.14;84.00
74169;BME280;62523;53.336;83.690;2022-12-22T06:21:36;100418.69;;;-12.12;83.92
74169;BME280;62523;53.336;83.690;2022-12-22T06:26:37;100431.34;;;-11.96;84.10
74169;BME280;62523;53.336;83.690;2022-12-22T06:31:39;100462.66;;;-11.97;83.53
74169;BME280;62523;53.336;83.690;2022-12-22T06:36:40;100471.88;;;-11.99;83.79
74169;BME280;62523;53.336;83.690;2022-12-22T06:41:41;100475.66;;;-12.07;83.20
74169;BME280;62523;53.336;83.690;2022-12-22T06:47:00;100484.72;;;-12.12;83.10
74169;BME280;62523;53.336;83.690;2022-12-22T06:52:02;100498.91;;;-12.16;82.57
74169;BME280;62523;53.336;83.690;2022-12-22T06:57:06;100498.44;;;-12.09;83.25
74169;BME280;62523;53.336;83.690;2022-12-22T07:02:11;100525.75;;;-12.21;84.14
74169;BME280;62523;53.336;83.690;2022-12-22T07:07:13;100522.06;;;-12.26;84.88
74169;BME280;62523;53.336;83.690;2022-12-22T07:12:14;100540.53;;;-12.14;85.09
74169;BME280;62523;53.336;83.690;2022-12-22T07:17:16;100528.97;;;-11.92;84.63
74169;BME280;62523;53.336;83.690;2022-12-22T07:22:18;100543.09;;;-11.98;83.95
74169;BME280;62523;53.336;83.690;2022-12-22T07:27:19;100537.22;;;-11.97;85.15
74169;BME280;62523;53.336;83.690;2022-12-22T07:32:21;100541.16;;;-11.85;85.38
74169;BME280;62523;53.336;83.690;2022-12-22T07:37:22;100544.44;;;-11.88;85.74
74169;BME280;62523;53.336;83.690;2022-12-22T07:42:23;100561.81;;;-11.46;84.75
74169;BME280;62523;53.336;83.690;2022-12-22T07:47:43;100558.03;;;-11.55;86.17
74169;BME280;62523;53.336;83.690;2022-12-22T07:52:44;100557.78;;;-11.43;86.47
74169;BME280;62523;53.336;83.690;2022-12-22T07:57:46;100559.31;;;-11.63;87.10
74169;BME280;62523;53.336;83.690;2022-12-22T08:02:51;100562.00;;;-11.60;87.01
74169;BME280;62523;53.336;83.690;2022-12-22T08:07:53;100565.03;;;-11.50;87.04
74169;BME280;62523;53.336;83.690;2022-12-22T08:12:55;100585.91;;;-11.56;86.10
74169;BME280;62523;53.336;83.690;2022-12-22T08:17:56;100586.25;;;-11.50;85.74
74169;BME280;62523;53.336;83.690;2022-12-22T08:22:58;100591.78;;;-11.57;85.28
74169;BME280;62523;53.336;83.690;2022-12-22T08:27:59;100604.41;;;-11.75;84.89
74169;BME280;62523;53.336;83.690;2022-12-22T08:33:02;100608.28;;;-11.82;85.00
74169;BME280;62523;53.336;83.690;2022-12-22T08:38:04;100614.94;;;-11.52;83.98
74169;BME280;62523;53.336;83.690;2022-12-22T08:43:08;100631.50;;;-11.76;83.79
74169;BME280;62523;53.336;83.690;2022-12-22T08:48:10;100620.84;;;-11.85;84.67
74169;BME280;62523;53.336;83.690;2022-12-22T08:53:11;100639.31;;;-11.87;84.91
74169;BME280;62523;53.336;83.690;2022-12-22T08:58:13;100649.56;;;-11.86;84.44
74169;BME280;62523;53.336;83.690;2022-12-22T09:03:14;100648.31;;;-11.94;84.90
74169;BME280;62523;53.336;83.690;2022-12-22T09:08:16;100665.84;;;-11.99;83.82
74169;BME280;62523;53.336;83.690;2022-12-22T09:13:20;100661.50;;;-12.16;84.31
74169;BME280;62523;53.336;83.690;2022-12-22T09:18:21;100671.84;;;-12.28;84.45
74169;BME280;62523;53.336;83.690;2022-12-22T09:23:23;100680.75;;;-12.34;84.55
74169;BME280;62523;53.336;83.690;2022-12-22T09:28:25;100700.81;;;-12.54;84.83
74169;BME280;62523;53.336;83.690;2022-12-22T09:33:28;100688.56;;;-12.61;85.65
74169;BME280;62523;53.336;83.690;2022-12-22T09:38:29;100699.38;;;-12.79;86.98
74169;BME280;62523;53.336;83.690;2022-12-22T09:43:31;100713.00;;;-12.91;87.56
74169;BME280;62523;53.336;83.690;2022-12-22T09:48:35;100716.19;;;-13.09;87.88
74169;BME280;62523;53.336;83.690;2022-12-22T09:53:37;100693.13;;;-13.27;87.97
74169;BME280;62523;53.336;83.690;2022-12-22T09:58:38;100722.88;;;-13.24;88.77
74169;BME280;62523;53.336;83.690;2022-12-22T10:04:15;100718.91;;;-13.34;89.61
74169;BME280;62523;53.336;83.690;2022-12-22T10:09:24;100735.72;;;-13.49;90.00
74169;BME280;62523;53.336;83.690;2022-12-22T10:14:37;100737.50;;;-13.48;90.49
74169;BME280;62523;53.336;83.690;2022-12-22T10:19:38;100735.34;;;-13.55;90.57
74169;BME280;62523;53.336;83.690;2022-12-22T10:24:40;100748.22;;;-13.52;90.46
74169;BME280;62523;53.336;83.690;2022-12-22T10:29:41;100753.28;;;-13.52;90.41
74169;BME280;62523;53.336;83.690;2022-12-22T10:35:01;100758.94;;;-13.56;90.79
74169;BME280;62523;53.336;83.690;2022-12-22T10:40:14;100760.97;;;-13.51;90.81
74169;BME280;62523;53.336;83.690;2022-12-22T10:45:19;100772.06;;;-13.49;91.08
74169;BME280;62523;53.336;83.690;2022-12-22T10:50:21;100755.59;;;-13.55;90.78
74169;BME280;62523;53.336;83.690;2022-12-22T10:55:25;100771.63;;;-13.56;91.05
74169;BME280;62523;53.336;83.690;2022-12-22T11:00:30;100766.63;;;-13.55;91.19
74169;BME280;62523;53.336;83.690;2022-12-22T11:05:32;100770.75;;;-13.57;91.37
74169;BME280;62523;53.336;83.690;2022-12-22T11:10:48;100778.53;;;-13.54;91.01
74169;BME280;62523;53.336;83.690;2022-12-22T11:16:02;100757.97;;;-13.58;90.76
74169;BME280;62523;53.336;83.690;2022-12-22T11:53:41;100760.91;;;-13.24;90.20
74169;BME280;62523;53.336;83.690;2022-12-22T12:10:19;100775.91;;;-13.27;89.60
74169;BME280;62523;53.336;83.690;2022-12-22T12:26:16;100797.09;;;-13.27;87.47
74169;BME280;62523;53.336;83.690;2022-12-22T12:31:18;100783.72;;;-13.24;87.22
74169;BME280;62523;53.336;83.690;2022-12-22T12:42:25;100795.94;;;-13.32;87.16
74169;BME280;62523;53.336;83.690;2022-12-22T12:47:34;100793.00;;;-13.25;86.55
74169;BME280;62523;53.336;83.690;2022-12-22T12:57:46;100809.78;;;-13.27;85.20
74169;BME280;62523;53.336;83.690;2022-12-22T13:02:57;100805.97;;;-13.20;84.87
74169;BME280;62523;53.336;83.690;2022-12-22T13:24:01;100822.06;;;-13.20;83.11
74169;BME280;62523;53.336;83.690;2022-12-22T13:29:18;100835.22;;;-13.25;82.77
74169;BME280;62523;53.336;83.690;2022-12-22T13:45:28;100839.25;;;-13.42;81.97
74169;BME280;62523;53.336;83.690;2022-12-22T13:50:38;100860.22;;;-13.45;81.42
74169;BME280;62523;53.336;83.690;2022-12-22T13:55:45;100845.97;;;-13.56;81.59
74169;BME280;62523;53.336;83.690;2022-12-22T14:11:29;100877.09;;;-13.45;80.73
74169;BME280;62523;53.336;83.690;2022-12-22T14:16:32;100882.75;;;-13.36;80.38
74169;BME280;62523;53.336;83.690;2022-12-22T14:21:34;100868.91;;;-13.41;79.35
74169;BME280;62523;53.336;83.690;2022-12-22T14:26:36;100878.19;;;-13.42;79.80
74169;BME280;62523;53.336;83.690;2022-12-22T14:31:58;100884.69;;;-13.45;78.99
74169;BME280;62523;53.336;83.690;2022-12-22T14:37:02;100897.66;;;-13.41;78.58
74169;BME280;62523;53.336;83.690;2022-12-22T14:42:04;100900.09;;;-13.42;78.45
74169;BME280;62523;53.336;83.690;2022-12-22T14:52:21;100912.47;;;-13.47;78.99
74169;BME280;62523;53.336;83.690;2022-12-22T14:57:41;100913.66;;;-13.42;78.99
74169;BME280;62523;53.336;83.690;2022-12-22T15:02:49;100912.69;;;-13.44;78.10
74169;BME280;62523;53.336;83.690;2022-12-22T15:07:55;100911.31;;;-13.52;78.56
74169;BME280;62523;53.336;83.690;2022-12-22T15:13:20;100921.44;;;-13.52;78.01
74169;BME280;62523;53.336;83.690;2022-12-22T15:18:27;100930.09;;;-13.62;78.58
74169;BME280;62523;53.336;83.690;2022-12-22T15:23:28;100918.38;;;-13.73;77.98
74169;BME280;62523;53.336;83.690;2022-12-22T15:28:29;100931.16;;;-13.71;78.49
74169;BME280;62523;53.336;83.690;2022-12-22T15:33:31;100927.34;;;-13.78;78.51
74169;BME280;62523;53.336;83.690;2022-12-22T15:38:32;100920.56;;;-13.91;78.80
74169;BME280;62523;53.336;83.690;2022-12-22T15:43:34;100936.75;;;-13.89;79.10
74169;BME280;62523;53.336;83.690;2022-12-22T15:48:37;100941.25;;;-13.85;78.75
74169;BME280;62523;53.336;83.690;2022-12-22T15:53:39;100952.41;;;-13.94;79.54
74169;BME280;62523;53.336;83.690;2022-12-22T15:58:41;100946.00;;;-13.89;80.03
74169;BME280;62523;53.336;83.690;2022-12-22T16:03:42;100932.50;;;-14.02;80.29
74169;BME280;62523;53.336;83.690;2022-12-22T16:08:51;100948.56;;;-13.89;80.69
74169;BME280;62523;53.336;83.690;2022-12-22T16:13:53;100943.72;;;-13.98;80.03
74169;BME280;62523;53.336;83.690;2022-12-22T16:18:54;100959.97;;;-13.83;79.88
74169;BME280;62523;53.336;83.690;2022-12-22T16:23:55;100963.41;;;-13.94;80.15
74169;BME280;62523;53.336;83.690;2022-12-22T16:28:57;100949.13;;;-13.93;80.15
74169;BME280;62523;53.336;83.690;2022-12-22T16:33:58;100954.00;;;-13.83;79.85
74169;BME280;62523;53.336;83.690;2022-12-22T16:39:00;100956.75;;;-14.05;79.60
74169;BME280;62523;53.336;83.690;2022-12-22T16:44:02;100933.34;;;-14.51;79.84
74169;BME280;62523;53.336;83.690;2022-12-22T16:49:07;100958.59;;;-14.39;79.95
74169;BME280;62523;53.336;83.690;2022-12-22T16:54:12;100976.56;;;-14.36;80.34
74169;BME280;62523;53.336;83.690;2022-12-22T16:59:14;100978.09;;;-14.38;80.30
74169;BME280;62523;53.336;83.690;2022-12-22T17:04:23;100985.94;;;-14.47;80.22
74169;BME280;62523;53.336;83.690;2022-12-22T17:09:31;100989.47;;;-14.45;80.30
74169;BME280;62523;53.336;83.690;2022-12-22T17:14:36;101014.09;;;-14.54;79.89
74169;BME280;62523;53.336;83.690;2022-12-22T17:19:38;101006.88;;;-14.61;79.46
74169;BME280;62523;53.336;83.690;2022-12-22T17:24:40;101007.22;;;-14.69;80.08
74169;BME280;62523;53.336;83.690;2022-12-22T17:29:41;101008.31;;;-14.65;80.45
74169;BME280;62523;53.336;83.690;2022-12-22T17:34:43;101008.88;;;-14.81;80.46
74169;BME280;62523;53.336;83.690;2022-12-22T17:39:46;101017.34;;;-14.80;80.48
74169;BME280;62523;53.336;83.690;2022-12-22T17:44:49;101018.00;;;-14.83;80.59
74169;BME280;62523;53.336;83.690;2022-12-22T17:49:51;101018.66;;;-14.86;81.00
74169;BME280;62523;53.336;83.690;2022-12-22T17:54:52;101026.69;;;-14.79;81.48
74169;BME280;62523;53.336;83.690;2022-12-22T17:59:54;101032.63;;;-14.79;82.13
74169;BME280;62523;53.336;83.690;2022-12-22T18:04:55;101031.63;;;-14.93;81.91
74169;BME280;62523;53.336;83.690;2022-12-22T18:09:58;101037.56;;;-14.92;82.09
74169;BME280;62523;53.336;83.690;2022-12-22T18:15:00;101010.59;;;-15.03;81.85
74169;BME280;62523;53.336;83.690;2022-12-22T18:20:02;101058.81;;;-14.90;82.69
74169;BME280;62523;53.336;83.690;2022-12-22T18:25:27;101039.41;;;-15.01;82.71
74169;BME280;62523;53.336;83.690;2022-12-22T18:30:28;101054.63;;;-14.90;83.17
74169;BME280;62523;53.336;83.690;2022-12-22T18:35:30;101057.69;;;-14.94;83.68
74169;BME280;62523;53.336;83.690;2022-12-22T18:40:33;101033.91;;;-15.19;83.76
74169;BME280;62523;53.336;83.690;2022-12-22T18:45:34;101064.16;;;-15.09;84.25
74169;BME280;62523;53.336;83.690;2022-12-22T18:50:36;101073.19;;;-15.01;84.91
74169;BME280;62523;53.336;83.690;2022-12-22T18:55:37;101072.41;;;-15.12;85.00
74169;BME280;62523;53.336;83.690;2022-12-22T19:00:38;101075.41;;;-15.28;85.34
74169;BME280;62523;53.336;83.690;2022-12-22T19:05:39;101088.84;;;-15.29;86.21
74169;BME280;62523;53.336;83.690;2022-12-22T19:10:44;101100.56;;;-15.29;87.37
74169;BME280;62523;53.336;83.690;2022-12-22T19:15:46;101032.75;;;-15.69;87.76
74169;BME280;62523;53.336;83.690;2022-12-22T19:20:48;101103.66;;;-15.33;88.48
74169;BME280;62523;53.336;83.690;2022-12-22T19:25:51;101066.84;;;-15.63;88.70
74169;BME280;62523;53.336;83.690;2022-12-22T19:30:55;101116.03;;;-15.36;89.45
74169;BME280;62523;53.336;83.690;2022-12-22T19:35:57;101119.78;;;-15.65;90.05
74169;BME280;62523;53.336;83.690;2022-12-22T19:41:00;101117.97;;;-15.78;90.56
74169;BME280;62523;53.336;83.690;2022-12-22T19:46:03;101127.47;;;-15.85;90.87
74169;BME280;62523;53.336;83.690;2022-12-22T19:51:04;101132.28;;;-15.89;91.61
74169;BME280;62523;53.336;83.690;2022-12-22T19:56:27;101130.16;;;-15.94;91.68
74169;BME280;62523;53.336;83.690;2022-12-22T20:01:31;101139.56;;;-16.03;91.78
74169;BME280;62523;53.336;83.690;2022-12-22T20:06:33;101155.28;;;-15.96;92.20
74169;BME280;62523;53.336;83.690;2022-12-22T20:11:34;101142.25;;;-16.22;92.83
74169;BME280;62523;53.336;83.690;2022-12-22T20:16:35;101161.22;;;-16.27;92.82
74169;BME280;62523;53.336;83.690;2022-12-22T20:21:37;101165.84;;;-16.22;92.60
74169;BME280;62523;53.336;83.690;2022-12-22T20:26:38;101164.81;;;-16.14;92.58
74169;BME280;62523;53.336;83.690;2022-12-22T20:31:39;101171.16;;;-16.19;92.59
74169;BME280;62523;53.336;83.690;2022-12-22T20:36:41;101174.47;;;-16.30;93.04
74169;BME280;62523;53.336;83.690;2022-12-22T20:41:43;101187.09;;;-16.30;93.37
74169;BME280;62523;53.336;83.690;2022-12-22T20:46:44;101173.47;;;-16.42;93.64
74169;BME280;62523;53.336;83.690;2022-12-22T20:51:45;101183.00;;;-16.28;93.40
74169;BME280;62523;53.336;83.690;2022-12-22T20:56:46;101181.91;;;-16.42;93.79
74169;BME280;62523;53.336;83.690;2022-12-22T21:01:50;101184.81;;;-16.37;94.11
74169;BME280;62523;53.336;83.690;2022-12-22T21:06:54;101189.34;;;-16.33;93.81
74169;BME280;62523;53.336;83.690;2022-12-22T21:11:56;101195.03;;;-16.36;94.04
74169;BME280;62523;53.336;83.690;2022-12-22T21:16:57;101195.41;;;-16.31;94.06
74169;BME280;62523;53.336;83.690;2022-12-22T21:21:58;101201.22;;;-16.32;94.24
74169;BME280;62523;53.336;83.690;2022-12-22T21:27:00;101206.28;;;-16.42;94.03
74169;BME280;62523;53.336;83.690;2022-12-22T21:32:01;101208.94;;;-16.41;94.25
74169;BME280;62523;53.336;83.690;2022-12-22T21:37:02;101220.53;;;-16.43;94.01
74169;BME280;62523;53.336;83.690;2022-12-22T21:42:04;101230.63;;;-16.43;94.33
74169;BME280;62523;53.336;83.690;2022-12-22T21:47:05;101237.19;;;-16.45;93.71
74169;BME280;62523;53.336;83.690;2022-12-22T21:52:06;101236.19;;;-16.47;93.32
74169;BME280;62523;53.336;83.690;2022-12-22T21:57:12;101237.19;;;-16.55;93.45
74169;BME280;62523;53.336;83.690;2022-12-22T22:02:16;101243.09;;;-16.55;93.15
74169;BME280;62523;53.336;83.690;2022-12-22T22:07:17;101242.88;;;-16.58;93.68
74169;BME280;62523;53.336;83.690;2022-12-22T22:12:19;101263.44;;;-16.43;93.97
74169;BME280;62523;53.336;83.690;2022-12-22T22:17:36;101272.63;;;-16.54;93.65
74169;BME280;62523;53.336;83.690;2022-12-22T22:22:37;101242.34;;;-16.74;93.64
74169;BME280;62523;53.336;83.690;2022-12-22T22:27:39;101273.75;;;-16.50;93.59
74169;BME280;62523;53.336;83.690;2022-12-22T22:32:41;101272.13;;;-16.60;93.52
74169;BME280;62523;53.336;83.690;2022-12-22T22:37:42;101278.03;;;-16.80;93.32
74169;BME280;62523;53.336;83.690;2022-12-22T22:42:46;101299.22;;;-16.67;93.69
74169;BME280;62523;53.336;83.690;2022-12-22T22:47:51;101296.56;;;-16.69;93.61
74169;BME280;62523;53.336;83.690;2022-12-22T22:52:52;101317.38;;;-16.72;93.72
74169;BME280;62523;53.336;83.690;2022-12-22T22:57:53;101312.84;;;-16.65;93.48
74169;BME280;62523;53.336;83.690;2022-12-22T23:02:54;101324.06;;;-16.62;93.82
74169;BME280;62523;53.336;83.690;2022-12-22T23:07:55;101324.94;;;-16.82;93.66
74169;BME280;62523;53.336;83.690;2022-12-22T23:12:57;101315.63;;;-16.83;93.87
74169;BME280;62523;53.336;83.690;2022-12-22T23:17:58;101338.31;;;-16.83;94.18
74169;BME280;62523;53.336;83.690;2022-12-22T23:22:59;101344.47;;;-16.89;94.25
74169;BME280;62523;53.336;83.690;2022-12-22T23:28:00;101341.38;;;-17.06;94.36
74169;BME280;62523;53.336;83.690;2022-12-22T23:33:01;101349.75;;;-17.26;94.31
74169;BME280;62523;53.336;83.690;2022-12-22T23:38:03;101355.00;;;-17.33;94.57
74169;BME280;62523;53.336;83.690;2022-12-22T23:43:06;101356.47;;;-17.45;94.96
74169;BME280;62523;53.336;83.690;2022-12-22T23:48:08;101365.66;;;-17.46;94.63
74169;BME280;62523;53.336;83.690;2022-12-22T23:53:09;101370.63;;;-17.56;94.99
74169;BME280;62523;53.336;83.690;2022-12-22T23:58:10;101350.88;;;-17.70;94.59
